createdAt,value
2018-07-04T00:00:36.691Z,21.20
2018-07-04T00:01:36.594Z,11.50
2018-07-04T00:02:36.593Z,30.60
2018-07-04T00:03:36.572Z,46.00
2018-07-04T00:04:36.561Z,29.60
2018-07-04T00:05:36.548Z,25.20
2018-07-04T00:06:36.555Z,34.00
2018-07-04T00:07:37.192Z,36.30
2018-07-04T00:08:36.532Z,22.60
2018-07-04T00:09:36.525Z,21.50
2018-07-04T00:10:36.501Z,38.70
2018-07-04T00:11:36.512Z,33.80
2018-07-04T00:12:37.161Z,24.30
2018-07-04T00:13:36.469Z,35.00
2018-07-04T00:14:36.444Z,30.10
2018-07-04T00:16:46.260Z,24.60
2018-07-04T00:17:46.211Z,16.20
2018-07-04T00:18:46.158Z,32.70
2018-07-04T00:19:46.204Z,22.10
2018-07-04T00:20:46.128Z,34.70
2018-07-04T00:21:46.113Z,10.30
2018-07-04T00:22:46.148Z,23.30
2018-07-04T00:23:46.101Z,35.60
2018-07-04T00:24:46.085Z,20.50
2018-07-04T00:25:46.216Z,28.80
2018-07-04T00:26:46.064Z,17.40
2018-07-04T00:27:46.071Z,14.70
2018-07-04T00:28:46.031Z,30.30
2018-07-04T00:29:46.038Z,21.30
2018-07-04T00:31:57.312Z,10.60
2018-07-04T00:32:57.247Z,22.10
2018-07-04T00:33:57.268Z,25.10
2018-07-04T00:34:57.299Z,23.00
2018-07-04T00:35:57.182Z,23.80
2018-07-04T00:36:57.116Z,8.90
2018-07-04T00:37:57.112Z,53.50
2018-07-04T00:38:57.166Z,20.60
2018-07-04T00:39:57.059Z,21.20
2018-07-04T00:40:57.078Z,13.40
2018-07-04T00:41:57.055Z,19.80
2018-07-04T00:42:57.081Z,7.50
2018-07-04T00:43:57.028Z,19.80
2018-07-04T00:44:57.004Z,34.60
2018-07-04T00:45:57.057Z,32.10
2018-07-04T00:46:56.960Z,42.10
2018-07-04T00:47:56.957Z,39.60
2018-07-04T00:48:57.000Z,23.60
2018-07-04T00:49:56.938Z,32.80
2018-07-04T00:50:56.938Z,32.90
2018-07-04T00:51:56.949Z,24.10
2018-07-04T00:52:56.897Z,21.60
2018-07-04T00:53:56.930Z,25.50
2018-07-04T00:54:56.890Z,23.60
2018-07-04T00:55:56.872Z,16.60
2018-07-04T00:56:56.856Z,21.90
2018-07-04T00:57:56.844Z,8.10
2018-07-04T00:58:56.828Z,20.80
2018-07-04T00:59:56.841Z,28.90
2018-07-04T01:00:56.807Z,14.40
2018-07-04T01:01:56.793Z,20.70
2018-07-04T01:02:56.781Z,28.70
2018-07-04T01:03:56.792Z,35.10
2018-07-04T01:04:56.775Z,28.50
2018-07-04T01:05:56.752Z,21.30
2018-07-04T01:06:56.733Z,30.10
2018-07-04T01:07:56.718Z,30.20
2018-07-04T01:08:56.710Z,35.40
2018-07-04T01:09:56.757Z,40.10
2018-07-04T01:10:56.689Z,42.00
2018-07-04T01:11:56.678Z,42.00
2018-07-04T01:12:56.670Z,38.20
2018-07-04T01:13:56.660Z,47.20
2018-07-04T01:14:56.641Z,26.60
2018-07-04T01:15:56.704Z,28.90
2018-07-04T01:16:56.617Z,25.10
2018-07-04T01:18:07.325Z,22.50
2018-07-04T01:18:56.870Z,15.40
2018-07-04T01:19:57.014Z,23.50
2018-07-04T01:20:57.712Z,14.00
2018-07-04T01:21:57.077Z,12.60
2018-07-04T01:24:08.398Z,8.40
2018-07-04T01:25:09.120Z,11.90
2018-07-04T01:26:09.670Z,35.80
2018-07-04T01:27:08.296Z,27.40
2018-07-04T01:28:08.213Z,21.90
2018-07-04T01:29:09.993Z,31.70
2018-07-04T01:30:08.133Z,30.00
2018-07-04T01:31:30.296Z,28.80
2018-07-04T01:32:09.009Z,26.90
2018-07-04T01:33:09.125Z,39.40
2018-07-04T01:34:10.038Z,17.20
2018-07-04T01:35:09.116Z,37.40
2018-07-04T01:36:08.135Z,22.00
2018-07-04T01:37:09.547Z,26.20
2018-07-04T01:38:10.010Z,25.40
2018-07-04T01:39:09.157Z,28.00
2018-07-04T01:40:08.047Z,27.50
2018-07-04T01:41:09.048Z,19.80
2018-07-04T01:42:08.027Z,13.40
2018-07-04T01:43:08.046Z,36.60
2018-07-04T01:44:09.044Z,20.80
2018-07-04T01:45:08.075Z,24.80
2018-07-04T01:46:07.994Z,22.90
2018-07-04T01:47:09.055Z,28.20
2018-07-04T01:48:09.000Z,20.50
2018-07-04T01:49:08.938Z,27.20
2018-07-04T01:50:07.911Z,12.70
2018-07-04T01:51:08.520Z,5.30
2018-07-04T01:52:10.509Z,27.30
2018-07-04T01:53:08.924Z,26.80
2018-07-04T01:54:07.887Z,36.80
2018-07-04T01:55:08.544Z,25.20
2018-07-04T01:56:07.883Z,47.40
2018-07-04T01:57:07.865Z,14.90
2018-07-04T01:58:07.836Z,21.10
2018-07-04T01:59:07.898Z,34.70
2018-07-04T02:00:07.783Z,7.30
2018-07-04T02:01:07.822Z,22.30
2018-07-04T02:02:07.757Z,40.60
2018-07-04T02:03:09.032Z,37.20
2018-07-04T02:04:09.577Z,26.30
2018-07-04T02:05:07.788Z,14.00
2018-07-04T02:06:08.769Z,17.50
2018-07-04T02:07:07.760Z,31.70
2018-07-04T02:08:09.506Z,28.50
2018-07-04T02:09:08.698Z,19.50
2018-07-04T02:10:09.520Z,23.50
2018-07-04T02:11:07.665Z,20.20
2018-07-04T02:12:07.692Z,31.70
2018-07-04T02:13:08.531Z,22.60
2018-07-04T02:14:07.693Z,38.20
2018-07-04T02:15:07.634Z,35.40
2018-07-04T02:16:07.711Z,34.80
2018-07-04T02:17:07.606Z,51.80
2018-07-04T02:18:07.616Z,22.80
2018-07-04T02:19:07.625Z,14.00
2018-07-04T02:20:07.598Z,34.10
2018-07-04T02:21:08.724Z,27.00
2018-07-04T02:22:09.547Z,36.50
2018-07-04T02:23:08.523Z,28.30
2018-07-04T02:24:21.087Z,28.80
2018-07-04T02:25:07.706Z,38.30
2018-07-04T02:26:08.504Z,18.80
2018-07-04T02:27:08.522Z,23.30
2018-07-04T02:28:09.014Z,8.90
2018-07-04T02:29:08.459Z,15.50
2018-07-04T02:30:08.582Z,24.40
2018-07-04T02:31:09.111Z,28.60
2018-07-04T02:32:09.113Z,21.70
2018-07-04T02:33:08.589Z,19.10
2018-07-04T02:34:09.053Z,24.70
2018-07-04T02:36:23.556Z,13.30
2018-07-04T02:37:22.359Z,27.40
2018-07-04T02:38:22.368Z,50.80
2018-07-04T02:39:22.396Z,31.30
2018-07-04T02:40:23.885Z,55.60
2018-07-04T02:41:23.878Z,35.10
2018-07-04T02:42:23.848Z,24.60
2018-07-04T02:45:25.085Z,77.10
2018-07-04T02:47:59.712Z,174.20
2018-07-04T02:48:54.944Z,101.70
2018-07-04T02:49:52.980Z,144.50
2018-07-04T02:51:33.327Z,79.40
2018-07-04T02:51:53.222Z,70.30
2018-07-04T02:52:53.184Z,58.70
2018-07-04T02:54:03.604Z,72.00
2018-07-04T02:54:52.869Z,91.60
2018-07-04T02:55:52.949Z,103.30
2018-07-04T02:56:54.581Z,79.70
2018-07-04T02:57:55.340Z,61.20
2018-07-04T02:58:53.734Z,107.00
2018-07-04T02:59:52.707Z,76.70
2018-07-04T03:00:52.782Z,74.50
2018-07-04T03:01:55.361Z,72.80
2018-07-04T03:03:06.617Z,59.40
2018-07-04T03:03:53.005Z,71.30
2018-07-04T03:04:53.745Z,95.70
2018-07-04T03:05:52.694Z,118.80
2018-07-04T03:07:16.382Z,52.90
2018-07-04T03:07:56.360Z,38.10
2018-07-04T03:08:55.453Z,56.50
2018-07-04T03:09:52.619Z,84.00
2018-07-04T03:10:52.716Z,91.80
2018-07-04T03:11:52.603Z,35.10
2018-07-04T03:17:04.973Z,30.40
2018-07-04T03:18:08.889Z,40.00
2018-07-04T03:19:30.462Z,125.50
2018-07-04T03:20:06.558Z,59.30
2018-07-04T03:21:07.386Z,122.30
2018-07-04T03:22:05.846Z,165.40
2018-07-04T03:23:06.389Z,93.90
2018-07-04T03:24:07.406Z,99.30
2018-07-04T03:25:07.321Z,149.80
2018-07-04T03:26:04.742Z,117.10
2018-07-04T03:27:04.715Z,105.60
2018-07-04T03:28:05.739Z,126.80
2018-07-04T03:29:05.693Z,50.50
2018-07-04T03:30:05.356Z,17.80
2018-07-04T03:31:25.690Z,80.50
2018-07-04T03:32:04.661Z,86.10
2018-07-04T03:33:04.675Z,186.40
2018-07-04T03:34:04.676Z,74.90
2018-07-04T03:35:04.625Z,64.60
2018-07-04T03:36:04.632Z,93.70
2018-07-04T03:37:05.821Z,42.80
2018-07-04T03:38:06.370Z,68.20
2018-07-04T03:39:04.867Z,92.60
2018-07-04T03:40:05.586Z,87.20
2018-07-04T03:41:04.587Z,67.40
2018-07-04T03:42:04.572Z,118.00
2018-07-04T03:43:07.333Z,101.40
2018-07-04T03:44:04.853Z,126.00
2018-07-04T03:45:04.507Z,109.10
2018-07-04T03:46:26.591Z,91.90
2018-07-04T03:47:05.482Z,92.90
2018-07-04T03:48:04.462Z,72.80
2018-07-04T03:49:05.328Z,89.10
2018-07-04T03:50:30.438Z,51.90
2018-07-04T03:51:04.940Z,5.80
2018-07-04T03:52:06.384Z,5.00
2018-07-04T03:53:19.043Z,92.30
2018-07-04T03:54:04.461Z,119.40
2018-07-04T03:56:17.127Z,33.30
2018-07-04T03:57:17.911Z,34.60
2018-07-04T03:59:35.802Z,113.40
2018-07-04T04:00:36.057Z,120.00
2018-07-04T04:01:35.906Z,139.70
2018-07-04T04:02:35.614Z,106.70
2018-07-04T04:03:35.680Z,131.00
2018-07-04T04:04:35.580Z,156.70
2018-07-04T04:05:35.629Z,113.70
2018-07-04T04:06:35.574Z,53.70
2018-07-04T04:07:35.599Z,80.70
2018-07-04T04:08:41.278Z,75.50
2018-07-04T04:09:35.583Z,99.80
2018-07-04T04:10:48.516Z,32.70
2018-07-04T04:11:35.648Z,18.80
2018-07-04T04:12:35.703Z,4.20
2018-07-04T04:13:35.613Z,10.20
2018-07-04T04:14:35.639Z,14.80
2018-07-04T04:15:35.555Z,32.10
2018-07-04T04:16:39.449Z,22.10
2018-07-04T04:17:36.541Z,93.20
2018-07-04T04:18:35.469Z,85.90
2018-07-04T04:19:35.455Z,134.20
2018-07-04T04:20:36.340Z,93.40
2018-07-04T04:21:37.363Z,52.60
2018-07-04T04:22:35.441Z,11.60
2018-07-04T04:23:35.370Z,14.70
2018-07-04T04:24:35.379Z,11.50
2018-07-04T04:25:47.348Z,93.50
2018-07-04T04:26:35.505Z,18.40
2018-07-04T04:27:38.496Z,28.10
2018-07-04T04:28:35.710Z,23.50
2018-07-04T04:29:35.439Z,4.00
2018-07-04T04:30:36.324Z,21.40
2018-07-04T04:32:49.853Z,2.80
2018-07-04T04:34:43.274Z,2.40
2018-07-04T04:35:43.350Z,3.40
2018-07-04T04:36:42.974Z,73.10
2018-07-04T04:37:42.829Z,74.90
2018-07-04T04:38:42.879Z,7.40
2018-07-04T04:39:42.860Z,9.20
2018-07-04T04:40:42.817Z,2.60
2018-07-04T04:41:42.950Z,13.50
2018-07-04T04:42:43.278Z,11.20
2018-07-04T04:43:42.790Z,2.80
2018-07-04T04:44:42.828Z,27.80
2018-07-04T04:45:42.755Z,4.90
2018-07-04T04:48:27.413Z,5.40
2018-07-04T04:48:58.653Z,2.80
2018-07-04T04:49:57.601Z,2.70
2018-07-04T04:50:58.527Z,3.70
2018-07-04T04:51:59.171Z,2.40
2018-07-04T04:53:10.093Z,4.40
2018-07-04T04:53:57.609Z,4.20
2018-07-04T04:56:25.752Z,1.80
2018-07-04T04:57:17.372Z,1.90
2018-07-04T04:58:15.895Z,4.00
2018-07-04T04:59:15.848Z,4.00
2018-07-04T05:00:15.829Z,2.90
2018-07-04T05:03:55.140Z,2.90
2018-07-04T05:04:55.062Z,2.30
2018-07-04T05:05:55.065Z,2.00
2018-07-04T05:06:55.178Z,2.10
2018-07-04T05:07:55.107Z,2.00
2018-07-04T05:08:55.036Z,2.80
2018-07-04T05:09:54.943Z,18.40
2018-07-04T05:10:54.967Z,18.00
2018-07-04T05:11:54.922Z,5.90
2018-07-04T05:12:54.901Z,4.20
2018-07-04T05:13:55.019Z,4.10
2018-07-04T05:14:54.895Z,5.20
2018-07-04T05:15:54.890Z,10.70
2018-07-04T05:18:09.572Z,2.30
2018-07-04T05:19:07.621Z,5.20
2018-07-04T05:20:07.537Z,6.40
2018-07-04T05:21:07.397Z,8.00
2018-07-04T05:22:07.364Z,4.60
2018-07-04T05:23:07.356Z,10.20
2018-07-04T05:24:07.330Z,2.80
2018-07-04T05:25:07.356Z,2.70
2018-07-04T05:26:07.360Z,3.10
2018-07-04T05:27:07.327Z,3.50
2018-07-04T05:28:07.281Z,8.00
2018-07-04T05:29:07.290Z,6.80
2018-07-04T05:30:07.275Z,1.80
2018-07-04T05:31:07.322Z,3.10
2018-07-04T05:33:19.929Z,2.30
2018-07-04T05:34:19.712Z,2.20
2018-07-04T05:35:19.870Z,4.50
2018-07-04T05:36:19.609Z,1.90
2018-07-04T05:37:19.579Z,3.30
2018-07-04T05:38:19.556Z,2.30
2018-07-04T05:39:19.613Z,2.60
2018-07-04T05:40:19.627Z,4.00
2018-07-04T05:41:19.560Z,1.90
2018-07-04T05:42:19.565Z,3.20
2018-07-04T05:43:19.581Z,4.10
2018-07-04T05:44:19.530Z,2.70
2018-07-04T05:45:19.510Z,2.50
2018-07-04T05:47:36.102Z,2.30
2018-07-04T05:48:35.965Z,2.50
2018-07-04T05:49:35.873Z,2.00
2018-07-04T05:50:35.919Z,3.00
2018-07-04T05:51:35.793Z,2.90
2018-07-04T05:52:35.669Z,3.40
2018-07-04T05:53:35.706Z,4.30
2018-07-04T05:54:35.637Z,7.20
2018-07-04T05:55:35.638Z,4.50
2018-07-04T05:56:35.687Z,3.10
2018-07-04T05:57:35.608Z,5.10
2018-07-04T05:58:35.655Z,3.60
2018-07-04T05:59:35.589Z,3.00
2018-07-04T06:00:35.540Z,2.20
2018-07-04T06:02:48.427Z,4.60
2018-07-04T06:03:48.382Z,3.40
2018-07-04T06:04:48.284Z,5.20
2018-07-04T06:05:48.286Z,3.70
2018-07-04T06:06:48.261Z,3.90
2018-07-04T06:07:48.228Z,3.90
2018-07-04T06:08:48.220Z,3.90
2018-07-04T06:09:48.203Z,6.30
2018-07-04T06:10:48.180Z,6.00
2018-07-04T06:11:48.249Z,2.90
2018-07-04T06:12:48.281Z,7.00
2018-07-04T06:13:48.207Z,5.10
2018-07-04T06:14:48.205Z,2.30
2018-07-04T06:15:48.138Z,5.20
2018-07-04T06:18:19.160Z,4.60
2018-07-04T06:19:18.937Z,4.40
2018-07-04T06:20:19.132Z,3.00
2018-07-04T06:21:18.901Z,4.00
2018-07-04T06:22:18.845Z,5.00
2018-07-04T06:23:18.891Z,3.60
2018-07-04T06:24:18.792Z,3.80
2018-07-04T06:25:18.828Z,4.00
2018-07-04T06:26:18.756Z,2.70
2018-07-04T06:27:18.734Z,2.10
2018-07-04T06:28:18.759Z,2.70
2018-07-04T06:29:18.862Z,2.00
2018-07-04T06:30:18.737Z,6.20
2018-07-04T06:31:18.793Z,3.30
2018-07-04T06:33:31.964Z,3.80
2018-07-04T06:34:31.899Z,4.30
2018-07-04T06:35:31.841Z,2.70
2018-07-04T06:36:31.870Z,3.60
2018-07-04T06:37:31.788Z,3.30
2018-07-04T06:38:31.741Z,5.20
2018-07-04T06:39:31.754Z,11.90
2018-07-04T06:40:31.668Z,9.30
2018-07-04T06:41:31.645Z,4.20
2018-07-04T06:42:31.646Z,3.00
2018-07-04T06:43:31.736Z,1.80
2018-07-04T06:44:31.635Z,9.30
2018-07-04T06:45:31.601Z,1.80
2018-07-04T06:47:46.353Z,2.00
2018-07-04T06:48:45.745Z,4.60
2018-07-04T06:49:45.743Z,6.50
2018-07-04T06:50:45.687Z,1.40
2018-07-04T06:51:45.642Z,634.20
2018-07-04T06:52:45.697Z,312.20
2018-07-04T06:53:45.665Z,94.10
2018-07-04T06:54:45.659Z,146.40
2018-07-04T06:55:45.592Z,14.70
2018-07-04T06:57:02.395Z,176.90
2018-07-04T06:57:46.827Z,201.80
2018-07-04T06:58:46.974Z,115.50
2018-07-04T06:59:55.776Z,9.30
2018-07-04T07:00:45.772Z,7.20
2018-07-04T07:06:10.916Z,8.10
2018-07-04T07:08:32.308Z,6.10
2018-07-04T07:09:32.585Z,4.10
2018-07-04T07:10:33.150Z,7.80
2018-07-04T07:11:32.110Z,15.50
2018-07-04T07:12:34.019Z,10.30
2018-07-04T07:13:32.033Z,9.80
2018-07-04T07:14:33.990Z,5.50
2018-07-04T07:15:32.932Z,20.40
2018-07-04T07:16:34.575Z,12.10
2018-07-04T07:17:53.016Z,89.30
2018-07-04T07:18:32.030Z,13.00
2018-07-04T07:19:31.947Z,45.10
2018-07-04T07:20:34.457Z,164.30
2018-07-04T07:21:31.998Z,52.30
2018-07-04T07:22:32.532Z,31.60
2018-07-04T07:23:32.988Z,45.50
2018-07-04T07:24:33.401Z,38.90
2018-07-04T07:25:32.526Z,7.70
2018-07-04T07:26:46.936Z,41.60
2018-07-04T07:27:31.808Z,29.40
2018-07-04T07:28:33.412Z,34.60
2018-07-04T07:29:33.516Z,12.20
2018-07-04T07:30:31.893Z,11.40
2018-07-04T07:31:31.789Z,4.50
2018-07-04T07:33:12.017Z,7.10
2018-07-04T07:33:31.727Z,12.10
2018-07-04T07:34:31.733Z,7.10
2018-07-04T07:35:31.702Z,8.90
2018-07-04T07:36:32.015Z,1.80
2018-07-04T07:37:31.656Z,1.90
2018-07-04T07:38:31.654Z,2.50
2018-07-04T07:39:31.679Z,2.70
2018-07-04T07:40:31.639Z,5.80
2018-07-04T07:41:33.614Z,2.60
2018-07-04T07:42:32.608Z,13.40
2018-07-04T07:43:32.433Z,33.40
2018-07-04T07:44:33.622Z,13.30
2018-07-04T07:45:32.399Z,4.70
2018-07-04T07:46:31.605Z,1.80
2018-07-04T07:47:31.634Z,4.50
2018-07-04T07:48:31.560Z,7.20
2018-07-04T07:49:31.588Z,2.00
2018-07-04T07:50:31.559Z,2.40
2018-07-04T07:51:31.505Z,1.90
2018-07-04T07:52:31.494Z,2.30
2018-07-04T07:53:31.499Z,2.10
2018-07-04T07:54:31.532Z,2.60
2018-07-04T07:55:31.630Z,3.20
2018-07-04T07:56:31.449Z,1.90
2018-07-04T07:57:34.406Z,6.20
2018-07-04T07:58:31.943Z,1.90
2018-07-04T07:59:31.415Z,1.40
2018-07-04T08:00:31.415Z,1.70
2018-07-04T08:01:31.410Z,2.60
2018-07-04T08:02:31.399Z,3.50
2018-07-04T08:03:31.409Z,1.70
2018-07-04T08:04:31.346Z,4.70
2018-07-04T08:05:31.353Z,1.50
2018-07-04T08:06:31.446Z,4.60
2018-07-04T08:07:31.370Z,2.90
2018-07-04T08:08:31.333Z,5.10
2018-07-04T08:09:31.346Z,7.10
2018-07-04T08:10:31.357Z,2.40
2018-07-04T08:11:31.312Z,3.20
2018-07-04T08:12:31.456Z,2.50
2018-07-04T08:13:31.295Z,4.50
2018-07-04T08:14:31.300Z,2.20
2018-07-04T08:15:31.265Z,6.80
2018-07-04T08:16:32.271Z,3.00
2018-07-04T08:17:43.226Z,2.10
2018-07-04T08:18:31.402Z,14.10
2018-07-04T08:19:31.582Z,13.50
2018-07-04T08:20:31.482Z,1.60
2018-07-04T08:21:31.351Z,4.10
2018-07-04T08:22:31.300Z,3.00
2018-07-04T08:23:31.268Z,4.80
2018-07-04T08:24:31.282Z,3.00
2018-07-04T08:25:31.239Z,4.60
2018-07-04T08:26:31.185Z,4.80
2018-07-04T08:27:31.210Z,6.30
2018-07-04T08:28:31.273Z,8.30
2018-07-04T08:29:31.252Z,2.40
2018-07-04T08:30:41.209Z,1.70
2018-07-04T08:31:31.377Z,6.70
2018-07-04T08:32:31.204Z,3.00
2018-07-04T08:33:31.299Z,3.30
2018-07-04T08:34:31.082Z,1.30
2018-07-04T08:35:31.063Z,5.00
2018-07-04T08:36:31.030Z,1.80
2018-07-04T08:37:31.075Z,2.70
2018-07-04T08:38:31.004Z,1.70
2018-07-04T08:39:30.985Z,2.70
2018-07-04T08:40:30.984Z,2.40
2018-07-04T08:41:30.986Z,4.10
2018-07-04T08:42:30.957Z,2.60
2018-07-04T08:43:30.990Z,1.60
2018-07-04T08:44:30.945Z,2.70
2018-07-04T08:45:30.952Z,1.90
2018-07-04T08:46:30.907Z,2.30
2018-07-04T08:47:30.956Z,5.50
2018-07-04T08:48:30.883Z,1.60
2018-07-04T08:49:30.868Z,5.40
2018-07-04T08:50:30.895Z,1.80
2018-07-04T08:51:30.862Z,9.00
2018-07-04T08:52:30.915Z,1.90
2018-07-04T08:57:00.185Z,3.70
2018-07-04T08:58:00.150Z,3.70
2018-07-04T08:59:00.219Z,10.50
2018-07-04T08:59:59.997Z,1.90
2018-07-04T09:00:59.930Z,5.80
2018-07-04T09:01:59.935Z,3.80
2018-07-04T09:02:59.896Z,2.90
2018-07-04T09:03:59.895Z,1.80
2018-07-04T09:04:59.882Z,1.30
2018-07-04T09:05:59.896Z,3.00
2018-07-04T09:06:59.876Z,2.60
2018-07-04T09:07:59.906Z,5.20
2018-07-04T09:08:59.825Z,3.50
2018-07-04T09:09:59.834Z,3.20
2018-07-04T09:10:59.807Z,4.10
2018-07-04T09:11:59.849Z,3.30
2018-07-04T09:12:59.783Z,1.90
2018-07-04T09:13:59.776Z,2.10
2018-07-04T09:14:59.805Z,1.50
2018-07-04T09:15:59.751Z,4.20
2018-07-04T09:16:59.765Z,1.90
2018-07-04T09:17:59.734Z,2.50
2018-07-04T09:18:59.712Z,2.30
2018-07-04T09:19:59.727Z,3.50
2018-07-04T09:20:59.705Z,2.50
2018-07-04T09:21:59.682Z,2.20
2018-07-04T09:22:59.723Z,1.40
2018-07-04T09:23:59.676Z,2.70
2018-07-04T09:24:59.654Z,1.40
2018-07-04T09:25:59.648Z,1.40
2018-07-04T09:26:59.688Z,1.80
2018-07-04T09:27:59.639Z,4.00
2018-07-04T09:28:59.614Z,2.40
2018-07-04T09:29:59.619Z,2.10
2018-07-04T09:30:59.604Z,2.50
2018-07-04T09:31:59.582Z,2.50
2018-07-04T09:32:59.607Z,1.90
2018-07-04T09:33:59.580Z,1.90
2018-07-04T09:34:59.552Z,3.60
2018-07-04T09:35:59.541Z,5.90
2018-07-04T09:36:59.528Z,3.70
2018-07-04T09:37:59.561Z,4.20
2018-07-04T09:38:59.510Z,5.10
2018-07-04T09:39:59.553Z,3.10
2018-07-04T09:40:59.477Z,2.00
2018-07-04T09:41:59.473Z,2.70
2018-07-04T09:42:59.494Z,1.50
2018-07-04T09:43:59.492Z,4.00
2018-07-04T09:44:59.452Z,1.90
2018-07-04T09:45:59.470Z,3.30
2018-07-04T09:47:10.233Z,1.30
2018-07-04T09:47:59.411Z,1.40
2018-07-04T09:48:59.439Z,4.50
2018-07-04T09:49:59.407Z,2.70
2018-07-04T09:50:59.382Z,4.40
2018-07-04T09:51:59.440Z,2.00
2018-07-04T09:52:59.378Z,2.30
2018-07-04T09:53:59.422Z,2.60
2018-07-04T09:54:59.387Z,3.40
2018-07-04T09:55:59.330Z,2.30
2018-07-04T09:56:59.344Z,6.80
2018-07-04T09:58:00.231Z,5.10
2018-07-04T09:58:59.301Z,2.40
2018-07-04T09:59:59.319Z,5.70
2018-07-04T10:00:59.266Z,2.90
2018-07-04T10:02:20.367Z,2.80
2018-07-04T10:02:59.297Z,3.20
2018-07-04T10:03:59.256Z,2.30
2018-07-04T10:04:59.249Z,1.30
2018-07-04T10:05:59.294Z,2.70
2018-07-04T10:06:59.234Z,2.20
2018-07-04T10:07:59.216Z,4.70
2018-07-04T10:08:59.210Z,1.80
2018-07-04T10:09:59.230Z,1.30
2018-07-04T10:10:59.320Z,3.10
2018-07-04T10:11:59.179Z,2.40
2018-07-04T10:13:05.695Z,2.10
2018-07-04T10:13:59.176Z,1.60
2018-07-04T10:14:59.205Z,2.70
2018-07-04T10:15:59.106Z,3.60
2018-07-04T10:16:59.093Z,1.90
2018-07-04T10:17:59.088Z,16.10
2018-07-04T10:18:59.145Z,3.70
2018-07-04T10:19:59.079Z,2.60
2018-07-04T10:20:59.118Z,7.00
2018-07-04T10:21:59.049Z,8.40
2018-07-04T10:22:59.082Z,7.10
2018-07-04T10:23:59.065Z,3.60
2018-07-04T10:24:59.011Z,2.40
2018-07-04T10:25:59.020Z,1.70
2018-07-04T10:26:59.003Z,1.80
2018-07-04T10:27:59.028Z,3.20
2018-07-04T10:28:58.981Z,5.00
2018-07-04T10:29:58.996Z,2.80
2018-07-04T10:30:59.046Z,3.80
2018-07-04T10:31:58.960Z,7.20
2018-07-04T10:32:58.942Z,1.90
2018-07-04T10:33:58.923Z,2.80
2018-07-04T10:34:58.912Z,3.60
2018-07-04T10:35:59.015Z,5.40
2018-07-04T10:36:58.929Z,3.90
2018-07-04T10:37:58.880Z,1.60
2018-07-04T10:38:58.932Z,3.40
2018-07-04T10:39:58.895Z,5.40
2018-07-04T10:40:58.847Z,3.30
2018-07-04T10:41:59.008Z,9.60
2018-07-04T10:42:58.863Z,9.60
2018-07-04T10:43:58.862Z,4.30
2018-07-04T10:44:58.827Z,5.00
2018-07-04T10:45:58.812Z,2.00
2018-07-04T10:46:58.944Z,4.50
2018-07-04T10:47:59.771Z,2.60
2018-07-04T10:48:58.809Z,5.20
2018-07-04T10:49:58.751Z,1.80
2018-07-04T10:50:58.755Z,2.00
2018-07-04T10:51:58.724Z,1.80
2018-07-04T10:52:58.745Z,3.60
2018-07-04T10:53:58.704Z,2.60
2018-07-04T10:54:58.705Z,5.30
2018-07-04T10:55:58.743Z,6.70
2018-07-04T10:56:58.684Z,2.40
2018-07-04T10:57:58.689Z,5.60
2018-07-04T10:58:58.696Z,1.40
2018-07-04T10:59:58.653Z,2.60
2018-07-04T11:00:58.644Z,1.60
2018-07-04T11:01:58.656Z,1.60
2018-07-04T11:02:58.658Z,2.70
2018-07-04T11:03:58.622Z,1.40
2018-07-04T11:04:58.609Z,2.40
2018-07-04T11:05:58.586Z,7.70
2018-07-04T11:06:58.604Z,1.60
2018-07-04T11:07:58.620Z,3.70
2018-07-04T11:08:58.552Z,2.10
2018-07-04T11:09:58.578Z,23.50
2018-07-04T11:10:58.601Z,9.80
2018-07-04T11:11:59.301Z,4.80
2018-07-04T11:13:02.316Z,4.30
2018-07-04T11:13:59.586Z,2.10
2018-07-04T11:15:03.336Z,3.50
2018-07-04T11:15:58.488Z,2.90
2018-07-04T11:16:58.622Z,6.00
2018-07-04T11:18:00.418Z,2.30
2018-07-04T11:30:20.030Z,8.20
2018-07-04T11:36:07.150Z,5.60
2018-07-04T12:08:09.514Z,4.40
2018-07-04T12:10:35.973Z,1.60
2018-07-04T12:11:35.817Z,2.60
2018-07-04T12:19:43.274Z,1.50
2018-07-04T12:20:21.972Z,1.90
2018-07-04T12:30:13.982Z,6.30
2018-07-04T12:32:36.728Z,2.70
2018-07-04T12:39:25.399Z,1.90
2018-07-04T12:48:53.236Z,1.40
2018-07-04T12:49:52.656Z,6.00
2018-07-04T12:50:52.771Z,7.10
2018-07-04T13:01:59.298Z,1.50
2018-07-04T13:04:49.375Z,1.70
2018-07-04T13:07:08.645Z,4.10
2018-07-04T13:14:35.931Z,4.70
2018-07-04T13:17:27.652Z,1.30
2018-07-04T13:19:41.341Z,1.60
2018-07-04T13:20:41.144Z,2.80
2018-07-04T13:21:41.604Z,2.80
2018-07-04T13:22:41.198Z,1.60
2018-07-04T13:23:41.039Z,6.20
2018-07-04T13:24:41.022Z,7.20
2018-07-04T13:25:41.011Z,22.80
2018-07-04T13:26:40.972Z,2.70
2018-07-04T13:27:40.957Z,4.10
2018-07-04T13:29:12.874Z,8.90
2018-07-04T13:29:41.068Z,8.40
2018-07-04T13:33:22.899Z,2.60
2018-07-04T13:34:23.610Z,5.10
2018-07-04T13:35:22.648Z,11.30
2018-07-04T13:36:22.466Z,7.40
2018-07-04T13:37:22.512Z,5.50
2018-07-04T13:38:22.549Z,2.40
2018-07-04T13:39:22.419Z,5.30
2018-07-04T13:40:22.651Z,2.80
2018-07-04T13:41:22.634Z,5.80
2018-07-04T13:42:22.566Z,1.40
2018-07-04T13:43:22.497Z,3.60
2018-07-04T15:17:23.797Z,1.50
2018-07-04T15:18:11.523Z,2.30
